Time;durP1;ratioP1;P1;durP2;ratioP2;P2;SDS_P1;SDS_P2;PMS_P1;PMS_P2;Temp;Humidity;BMP_temperature;BMP_pressure;BME280_temperature;BME280_humidity;BME280_pressure;Samples;Min_cycle;Max_cycle;Signal;HPM_P1;HPM_P2
2023/03/15 00:00:55;;;;;;;9.32;1.90;;;7.10;50.20;;;;;;4945129;28;20058;-51
2023/03/15 00:03:24;;;;;;;12.32;2.72;;;7.10;50.30;;;;;;4944428;28;20523;-44
2023/03/15 00:05:54;;;;;;;11.88;2.92;;;7.10;50.30;;;;;;4944528;28;20062;-45
2023/03/15 00:08:21;;;;;;;17.77;2.75;;;7.10;50.30;;;;;;4944089;28;20080;-43
2023/03/15 00:10:50;;;;;;;7.32;2.22;;;7.10;50.40;;;;;;4943512;28;21330;-45
2023/03/15 00:13:17;;;;;;;14.90;2.83;;;7.10;50.40;;;;;;4943715;28;20110;-45
2023/03/15 00:15:46;;;;;;;14.40;2.53;;;7.10;50.40;;;;;;4944020;28;20063;-47
2023/03/15 00:18:14;;;;;;;10.43;2.38;;;7.10;50.40;;;;;;4944889;28;20283;-46
2023/03/15 00:20:42;;;;;;;11.93;2.45;;;7.10;50.50;;;;;;4944573;28;20062;-49
2023/03/15 00:23:10;;;;;;;13.88;3.10;;;7.00;50.50;;;;;;4945731;28;20070;-44
2023/03/15 00:25:37;;;;;;;12.90;2.10;;;7.00;50.60;;;;;;4943463;28;20079;-46
2023/03/15 00:28:06;;;;;;;11.82;1.85;;;7.00;50.60;;;;;;4942752;28;20556;-44
2023/03/15 00:30:34;;;;;;;7.65;1.90;;;7.00;50.60;;;;;;4943345;28;20050;-45
2023/03/15 00:33:04;;;;;;;15.85;2.90;;;7.00;50.60;;;;;;4944005;28;20191;-47
2023/03/15 00:35:32;;;;;;;12.45;2.10;;;7.00;50.60;;;;;;4945822;28;20055;-44
2023/03/15 00:38:00;;;;;;;18.92;2.92;;;7.00;50.50;;;;;;4942256;28;20062;-44
2023/03/15 00:40:27;;;;;;;10.93;2.28;;;7.00;50.60;;;;;;4944127;28;20082;-48
2023/03/15 00:42:56;;;;;;;11.55;2.47;;;7.00;51.10;;;;;;4947238;28;20062;-45
2023/03/15 00:45:24;;;;;;;11.68;2.40;;;7.00;50.70;;;;;;4950392;28;20054;-44
2023/03/15 00:47:53;;;;;;;10.82;2.97;;;7.00;50.80;;;;;;4949520;28;20145;-47
2023/03/15 00:50:22;;;;;;;17.60;4.20;;;7.00;50.80;;;;;;4950903;28;20066;-45
2023/03/15 00:52:50;;;;;;;19.10;3.65;;;7.00;50.90;;;;;;4950361;28;20058;-44
2023/03/15 00:55:20;;;;;;;11.95;2.53;;;7.00;50.90;;;;;;4950940;28;20487;-44
2023/03/15 00:57:47;;;;;;;9.35;2.20;;;7.00;50.90;;;;;;4948176;28;20513;-46
2023/03/15 01:00:18;;;;;;;14.60;3.10;;;7.00;51.00;;;;;;4949477;28;20061;-44
2023/03/15 01:02:48;;;;;;;13.05;2.42;;;7.00;51.10;;;;;;4950341;28;20074;-43
2023/03/15 01:05:15;;;;;;;11.75;3.15;;;7.00;51.10;;;;;;4950040;28;20059;-44
2023/03/15 01:07:44;;;;;;;8.70;2.05;;;7.00;51.10;;;;;;4949133;28;20054;-49
2023/03/15 01:10:12;;;;;;;11.95;2.67;;;7.00;51.10;;;;;;4949561;28;20424;-46
2023/03/15 01:12:40;;;;;;;11.10;2.45;;;7.00;51.10;;;;;;4947708;28;20050;-44
2023/03/15 01:15:10;;;;;;;7.30;1.92;;;7.10;51.20;;;;;;4952156;28;20082;-45
2023/03/15 01:17:38;;;;;;;11.45;2.50;;;7.10;51.10;;;;;;4949897;28;20054;-46
2023/03/15 01:20:08;;;;;;;10.60;2.92;;;7.10;51.20;;;;;;4950197;28;20526;-45
2023/03/15 01:22:35;;;;;;;8.45;2.42;;;7.10;51.20;;;;;;4949209;28;20149;-44
2023/03/15 01:25:02;;;;;;;20.92;3.40;;;7.10;51.20;;;;;;4951775;28;20063;-44
2023/03/15 01:27:30;;;;;;;15.38;3.50;;;7.00;51.20;;;;;;4947882;28;21653;-45
2023/03/15 01:29:57;;;;;;;8.30;2.63;;;7.10;51.30;;;;;;4950530;28;20515;-50
2023/03/15 01:32:24;;;;;;;10.13;2.75;;;7.10;51.30;;;;;;4952542;28;20063;-49
2023/03/15 01:34:51;;;;;;;14.60;3.30;;;7.10;51.40;;;;;;4949718;28;20051;-46
2023/03/15 01:37:23;;;;;;;9.88;3.15;;;7.10;51.50;;;;;;4948008;28;20500;-46
2023/03/15 01:39:50;;;;;;;9.77;2.97;;;7.10;51.50;;;;;;4950479;28;20058;-44
2023/03/15 01:42:18;;;;;;;9.70;3.30;;;7.10;51.60;;;;;;4950248;28;20514;-45
2023/03/15 01:44:50;;;;;;;11.52;3.35;;;7.10;51.60;;;;;;4950663;28;20059;-44
2023/03/15 01:47:18;;;;;;;10.38;3.35;;;7.10;51.70;;;;;;4949946;28;20059;-44
2023/03/15 01:49:51;;;;;;;15.45;3.53;;;7.10;51.80;;;;;;4947800;28;20063;-45
2023/03/15 01:52:24;;;;;;;11.63;3.63;;;7.10;51.80;;;;;;4948222;28;20070;-45
2023/03/15 01:54:54;;;;;;;12.80;3.72;;;7.10;51.90;;;;;;4945343;28;21801;-45
2023/03/15 01:57:25;;;;;;;13.57;3.22;;;7.10;52.00;;;;;;4945077;28;20062;-46
2023/03/15 01:59:58;;;;;;;13.75;3.58;;;7.10;52.00;;;;;;4947915;28;20062;-47
2023/03/15 02:02:26;;;;;;;11.90;3.78;;;7.10;52.00;;;;;;4946839;28;20063;-45
2023/03/15 02:04:59;;;;;;;14.82;4.22;;;7.10;52.10;;;;;;4944443;28;20058;-49
2023/03/15 02:07:33;;;;;;;18.08;3.75;;;7.10;52.30;;;;;;4947327;28;20067;-50
2023/03/15 02:10:04;;;;;;;11.05;3.85;;;7.20;52.40;;;;;;4947338;28;20066;-51
2023/03/15 02:12:34;;;;;;;13.48;3.20;;;7.20;52.30;;;;;;4945820;28;20051;-53
2023/03/15 02:15:04;;;;;;;11.07;3.47;;;7.20;52.40;;;;;;4946183;28;20086;-48
2023/03/15 02:17:36;;;;;;;38.00;11.50;;;7.20;52.40;;;;;;4946833;28;20499;-50
2023/03/15 02:20:15;;;;;;;18.20;5.68;;;7.20;52.40;;;;;;4945966;28;20435;-48
2023/03/15 02:22:50;;;;;;;16.17;4.28;;;7.20;52.30;;;;;;4945531;28;20051;-48
2023/03/15 02:25:26;;;;;;;13.75;4.05;;;7.20;52.30;;;;;;4947098;28;20055;-51
2023/03/15 02:27:56;;;;;;;11.20;3.95;;;7.20;52.40;;;;;;4947054;28;20059;-52
2023/03/15 02:30:23;;;;;;;11.07;4.22;;;7.30;52.40;;;;;;4946242;28;20059;-53
2023/03/15 02:32:50;;;;;;;9.88;3.90;;;7.20;52.50;;;;;;4947972;28;20051;-50
2023/03/15 02:35:24;;;;;;;16.52;4.43;;;7.20;53.00;;;;;;4947557;28;20487;-51
2023/03/15 02:37:52;;;;;;;21.20;3.88;;;7.30;52.60;;;;;;4948677;28;20531;-49
2023/03/15 02:40:22;;;;;;;9.63;3.53;;;7.30;52.60;;;;;;4943806;28;20051;-53
2023/03/15 02:42:53;;;;;;;16.67;4.32;;;7.30;52.60;;;;;;4945752;28;20055;-48
2023/03/15 02:45:23;;;;;;;14.90;3.67;;;7.30;52.60;;;;;;4944098;28;20110;-52
2023/03/15 02:47:51;;;;;;;12.80;3.85;;;7.30;52.60;;;;;;4947517;28;20059;-50
2023/03/15 02:50:18;;;;;;;11.63;3.63;;;7.30;52.60;;;;;;4948231;28;20357;-50
2023/03/15 02:52:46;;;;;;;16.83;5.18;;;7.30;52.70;;;;;;4945875;28;20579;-49
2023/03/15 02:55:13;;;;;;;15.02;3.88;;;7.30;52.80;;;;;;4945790;28;20043;-51
2023/03/15 02:57:40;;;;;;;9.05;3.83;;;7.30;52.80;;;;;;4945085;28;20070;-48
2023/03/15 03:00:12;;;;;;;13.68;3.58;;;7.30;52.90;;;;;;4946495;28;20066;-51
2023/03/15 03:02:43;;;;;;;8.35;3.95;;;7.30;52.90;;;;;;4945501;28;20459;-49
2023/03/15 03:05:11;;;;;;;36.33;11.85;;;7.30;52.90;;;;;;4945678;28;20051;-49
2023/03/15 03:07:38;;;;;;;18.90;5.95;;;7.30;53.00;;;;;;4944189;28;20051;-49
2023/03/15 03:10:07;;;;;;;17.67;4.60;;;7.30;53.10;;;;;;4947255;28;20054;-50
2023/03/15 03:12:34;;;;;;;14.10;4.32;;;7.30;53.20;;;;;;4943668;28;20051;-52
2023/03/15 03:15:03;;;;;;;9.95;4.28;;;7.30;53.20;;;;;;4946338;28;20526;-51
2023/03/15 03:17:30;;;;;;;9.10;3.67;;;7.30;53.30;;;;;;4945562;28;20491;-49
2023/03/15 03:20:00;;;;;;;10.07;3.60;;;7.30;53.40;;;;;;4943560;28;20507;-52
2023/03/15 03:22:27;;;;;;;11.40;3.97;;;7.30;53.40;;;;;;4946686;28;20071;-52
2023/03/15 03:24:54;;;;;;;13.10;4.18;;;7.20;53.30;;;;;;4946463;28;20050;-49
2023/03/15 03:27:21;;;;;;;6.72;3.40;;;7.20;54.00;;;;;;4942810;28;20495;-53
2023/03/15 03:29:49;;;;;;;6.88;3.72;;;7.10;53.50;;;;;;4944846;28;20051;-51
2023/03/15 03:32:16;;;;;;;8.32;3.28;;;7.10;53.60;;;;;;4942529;28;20059;-53
2023/03/15 03:34:47;;;;;;;10.82;3.70;;;7.10;53.70;;;;;;4944944;28;20459;-51
2023/03/15 03:37:17;;;;;;;8.55;3.85;;;7.10;53.80;;;;;;4945427;28;20082;-53
2023/03/15 03:39:44;;;;;;;6.80;3.33;;;7.00;54.00;;;;;;4945641;28;20053;-52
2023/03/15 03:42:13;;;;;;;7.10;3.40;;;7.00;54.10;;;;;;4945995;28;20059;-52
2023/03/15 03:44:43;;;;;;;7.05;3.00;;;6.90;54.20;;;;;;4946373;28;20051;-47
2023/03/15 03:47:10;;;;;;;8.68;3.33;;;6.90;54.30;;;;;;4946017;28;20081;-49
2023/03/15 03:49:38;;;;;;;9.73;4.80;;;6.90;54.40;;;;;;4942430;28;20050;-50
2023/03/15 03:52:06;;;;;;;4.20;2.53;;;6.90;54.50;;;;;;4944589;28;20058;-45
2023/03/15 03:54:34;;;;;;;7.32;3.05;;;6.80;54.50;;;;;;4945915;28;20456;-44
2023/03/15 03:57:01;;;;;;;7.35;3.20;;;6.80;54.70;;;;;;4944456;28;20055;-44
2023/03/15 03:59:29;;;;;;;5.75;2.90;;;6.70;54.70;;;;;;4944931;28;20054;-46
2023/03/15 04:01:56;;;;;;;4.15;2.70;;;6.70;54.70;;;;;;4944809;28;20067;-48
2023/03/15 04:04:25;;;;;;;9.68;3.53;;;6.60;54.70;;;;;;4945840;28;20051;-44
2023/03/15 04:06:53;;;;;;;3.40;2.35;;;6.60;54.90;;;;;;4945422;28;20074;-44
2023/03/15 04:09:23;;;;;;;5.00;2.38;;;6.60;55.00;;;;;;4944349;28;20062;-45
2023/03/15 04:11:52;;;;;;;2.75;1.73;;;6.50;55.00;;;;;;4942730;28;20051;-45
2023/03/15 04:14:19;;;;;;;3.15;2.03;;;6.50;55.10;;;;;;4944631;28;20051;-48
2023/03/15 04:16:46;;;;;;;4.00;1.92;;;6.50;55.20;;;;;;4945677;28;20047;-44
2023/03/15 04:19:13;;;;;;;5.82;2.22;;;6.50;55.30;;;;;;4946523;28;20055;-45
2023/03/15 04:21:46;;;;;;;4.22;2.08;;;6.50;55.30;;;;;;4946082;28;20058;-49
2023/03/15 04:24:13;;;;;;;4.70;2.92;;;6.50;55.40;;;;;;4945516;28;20046;-49
2023/03/15 04:26:41;;;;;;;2.78;2.10;;;6.50;55.40;;;;;;4943947;28;20059;-46
2023/03/15 04:29:11;;;;;;;4.18;2.33;;;6.50;55.40;;;;;;4944723;28;20055;-45
2023/03/15 04:31:38;;;;;;;3.78;2.72;;;6.50;55.40;;;;;;4946162;28;20154;-44
2023/03/15 04:34:05;;;;;;;4.93;2.33;;;6.50;55.50;;;;;;4945489;28;20055;-47
2023/03/15 04:36:32;;;;;;;3.78;2.30;;;6.50;55.50;;;;;;4945882;28;20055;-45
2023/03/15 04:39:04;;;;;;;6.80;3.45;;;6.50;55.50;;;;;;4945056;28;20423;-47
2023/03/15 04:41:33;;;;;;;4.97;3.10;;;6.50;55.50;;;;;;4943016;28;20070;-44
2023/03/15 04:44:00;;;;;;;6.50;2.83;;;6.50;55.60;;;;;;4945126;28;21057;-45
2023/03/15 04:46:29;;;;;;;6.53;2.50;;;6.50;55.60;;;;;;4945250;28;20059;-45
2023/03/15 04:48:56;;;;;;;5.18;2.80;;;6.50;55.60;;;;;;4947714;28;20068;-45
2023/03/15 04:51:24;;;;;;;5.53;2.90;;;6.50;55.60;;;;;;4945186;28;20055;-48
2023/03/15 04:53:51;;;;;;;4.93;2.83;;;6.50;55.70;;;;;;4944650;28;20499;-48
2023/03/15 04:56:18;;;;;;;5.22;2.85;;;6.50;55.70;;;;;;4942977;28;20059;-44
2023/03/15 04:58:46;;;;;;;7.25;2.97;;;6.50;55.70;;;;;;4945243;28;20085;-45
2023/03/15 05:01:13;;;;;;;6.40;3.10;;;6.50;55.70;;;;;;4944911;28;20058;-45
2023/03/15 05:03:42;;;;;;;8.23;3.83;;;6.50;55.80;;;;;;4944475;28;20059;-44
2023/03/15 05:06:09;;;;;;;8.40;3.60;;;6.50;55.90;;;;;;4944726;28;20050;-46
2023/03/15 05:08:37;;;;;;;7.82;2.97;;;6.50;55.90;;;;;;4944860;28;20048;-50
2023/03/15 05:11:05;;;;;;;8.38;2.78;;;6.50;55.90;;;;;;4943578;28;20377;-46
2023/03/15 05:13:32;;;;;;;5.32;2.97;;;6.50;55.90;;;;;;4943970;28;20055;-44
2023/03/15 05:15:59;;;;;;;5.22;2.53;;;6.50;56.00;;;;;;4943969;28;20047;-43
2023/03/15 05:18:27;;;;;;;7.05;2.80;;;6.50;56.00;;;;;;4945505;28;20055;-43
2023/03/15 05:20:55;;;;;;;4.65;2.60;;;6.50;56.00;;;;;;4944025;28;20393;-49
2023/03/15 05:23:23;;;;;;;7.88;3.40;;;6.50;56.10;;;;;;4944900;28;20073;-48
2023/03/15 05:25:53;;;;;;;5.55;2.60;;;6.60;56.10;;;;;;4943120;28;20047;-46
2023/03/15 05:28:21;;;;;;;6.55;2.00;;;6.50;56.20;;;;;;4947279;28;20058;-44
2023/03/15 05:30:48;;;;;;;5.53;2.20;;;6.50;56.10;;;;;;4947580;28;20158;-44
2023/03/15 05:33:15;;;;;;;3.80;1.88;;;6.50;56.20;;;;;;4947886;28;20054;-45
2023/03/15 05:35:43;;;;;;;3.38;1.70;;;6.50;56.20;;;;;;4948149;28;20078;-46
2023/03/15 05:38:13;;;;;;;1.42;1.25;;;6.50;56.20;;;;;;4950208;28;20066;-44
2023/03/15 05:40:41;;;;;;;2.67;1.33;;;6.40;56.30;;;;;;4947415;28;21385;-47
2023/03/15 05:43:08;;;;;;;3.00;1.85;;;6.50;56.30;;;;;;4947570;28;20063;-46
2023/03/15 05:45:36;;;;;;;5.25;2.08;;;6.50;56.40;;;;;;4948700;28;20051;-45
2023/03/15 05:48:03;;;;;;;2.45;1.58;;;6.40;56.40;;;;;;4946674;28;20055;-47
2023/03/15 05:50:31;;;;;;;3.13;1.90;;;6.40;56.40;;;;;;4946219;28;20062;-45
2023/03/15 05:52:59;;;;;;;5.15;2.42;;;6.40;56.50;;;;;;4946719;28;20066;-45
2023/03/15 05:55:27;;;;;;;3.95;2.30;;;6.40;56.60;;;;;;4945958;28;20595;-48
2023/03/15 05:57:54;;;;;;;2.72;1.85;;;6.40;56.60;;;;;;4947757;28;20058;-44
2023/03/15 06:00:22;;;;;;;3.30;1.88;;;6.30;56.60;;;;;;4948689;28;20504;-48
2023/03/15 06:02:50;;;;;;;6.75;2.85;;;6.30;56.60;;;;;;4946912;28;20526;-54
2023/03/15 06:05:17;;;;;;;4.68;2.50;;;6.30;56.80;;;;;;4947792;28;20047;-49
2023/03/15 06:07:45;;;;;;;4.88;2.70;;;6.30;56.80;;;;;;4946947;28;20463;-51
2023/03/15 06:10:12;;;;;;;4.85;2.80;;;6.20;56.90;;;;;;4946685;28;20493;-52
2023/03/15 06:12:41;;;;;;;6.65;3.10;;;6.20;57.00;;;;;;4945822;28;20419;-53
2023/03/15 06:15:10;;;;;;;6.28;2.67;;;6.20;57.00;;;;;;4948725;28;20062;-52
2023/03/15 06:17:37;;;;;;;4.72;2.38;;;6.20;57.10;;;;;;4947308;28;20059;-54
2023/03/15 06:20:05;;;;;;;7.63;2.90;;;6.20;57.20;;;;;;4947438;28;20063;-53
2023/03/15 06:22:32;;;;;;;6.45;2.75;;;6.20;57.30;;;;;;4947606;28;20154;-54
2023/03/15 06:25:00;;;;;;;4.47;2.63;;;6.10;57.30;;;;;;4947076;28;20051;-54
2023/03/15 06:27:27;;;;;;;3.75;2.40;;;6.10;57.30;;;;;;4946157;28;20380;-53
2023/03/15 06:29:56;;;;;;;4.85;2.22;;;6.10;57.40;;;;;;4947682;28;20055;-54
2023/03/15 06:32:23;;;;;;;5.55;2.20;;;6.10;57.40;;;;;;4948069;28;20051;-53
2023/03/15 06:34:50;;;;;;;3.78;2.15;;;6.10;57.50;;;;;;4946647;28;20474;-51
2023/03/15 06:37:18;;;;;;;4.93;2.10;;;6.10;57.60;;;;;;4946996;28;20066;-51
2023/03/15 06:39:46;;;;;;;3.65;2.03;;;6.10;57.60;;;;;;4946995;28;20047;-52
2023/03/15 06:42:15;;;;;;;4.65;2.08;;;6.20;57.70;;;;;;4943909;28;20063;-52
2023/03/15 06:44:44;;;;;;;5.90;2.15;;;6.20;57.70;;;;;;4945465;28;20059;-53
2023/03/15 06:47:15;;;;;;;3.47;2.53;;;6.20;57.70;;;;;;4948098;28;20475;-53
2023/03/15 06:49:44;;;;;;;5.15;2.30;;;6.10;57.70;;;;;;4946010;28;20051;-52
2023/03/15 06:52:13;;;;;;;6.03;2.95;;;6.20;57.70;;;;;;4945964;28;20601;-50
2023/03/15 06:54:42;;;;;;;4.05;3.15;;;6.10;57.70;;;;;;4944961;28;20055;-54
2023/03/15 06:57:12;;;;;;;7.05;3.20;;;6.20;57.80;;;;;;4943964;28;20051;-51
2023/03/15 06:59:41;;;;;;;7.75;4.05;;;6.20;57.80;;;;;;4945312;28;20058;-52
2023/03/15 07:02:15;;;;;;;4.43;3.08;;;6.20;57.90;;;;;;4945773;28;20067;-54
2023/03/15 07:04:43;;;;;;;7.47;3.60;;;6.20;57.80;;;;;;4947668;28;20055;-50
2023/03/15 07:07:10;;;;;;;7.72;3.97;;;6.20;57.90;;;;;;4946670;28;20507;-50
2023/03/15 07:09:38;;;;;;;8.70;4.97;;;6.10;57.90;;;;;;4947147;28;20058;-53
2023/03/15 07:12:05;;;;;;;8.65;3.75;;;6.10;57.90;;;;;;4945337;28;20530;-54
2023/03/15 07:14:33;;;;;;;6.32;4.35;;;6.10;57.90;;;;;;4947207;28;20063;-54
2023/03/15 07:17:01;;;;;;;5.07;4.15;;;6.10;58.00;;;;;;4946191;28;20483;-53
2023/03/15 07:19:29;;;;;;;5.07;3.35;;;6.10;58.10;;;;;;4946335;28;20065;-54
2023/03/15 07:21:57;;;;;;;5.80;3.58;;;6.10;58.10;;;;;;4949060;28;20062;-54
2023/03/15 07:24:24;;;;;;;4.60;3.80;;;6.10;58.20;;;;;;4946261;28;20431;-53
2023/03/15 07:26:55;;;;;;;5.10;4.05;;;6.00;58.20;;;;;;4945901;28;20047;-55
2023/03/15 07:29:22;;;;;;;7.60;4.35;;;6.00;58.80;;;;;;4946012;28;20063;-53
2023/03/15 07:31:49;;;;;;;9.63;5.35;;;6.00;58.30;;;;;;4946385;28;20063;-54
2023/03/15 07:34:17;;;;;;;9.07;5.82;;;6.00;58.40;;;;;;4947463;28;20441;-54
2023/03/15 07:36:45;;;;;;;12.02;8.10;;;6.00;58.40;;;;;;4946423;28;20055;-52
2023/03/15 07:39:13;;;;;;;16.15;8.70;;;6.00;58.50;;;;;;4946245;28;20179;-53
2023/03/15 07:41:40;;;;;;;11.40;8.52;;;6.00;58.50;;;;;;4943782;28;20059;-54
2023/03/15 07:44:08;;;;;;;15.15;8.85;;;6.00;58.50;;;;;;4947272;28;20047;-53
2023/03/15 07:46:35;;;;;;;36.50;11.55;;;5.90;58.50;;;;;;4945939;28;20058;-53
2023/03/15 07:49:02;;;;;;;21.70;10.07;;;5.90;58.60;;;;;;4946339;28;20063;-53
2023/03/15 07:51:29;;;;;;;20.30;10.60;;;5.90;58.70;;;;;;4945675;28;20066;-54
2023/03/15 07:53:58;;;;;;;57.75;12.57;;;5.80;59.20;;;;;;4947449;28;20522;-54
2023/03/15 07:56:25;;;;;;;28.70;11.43;;;5.80;58.90;;;;;;4945467;28;20054;-53
2023/03/15 07:58:52;;;;;;;16.13;11.18;;;5.80;59.50;;;;;;4945779;28;20062;-54
2023/03/15 08:01:20;;;;;;;18.80;12.07;;;5.80;59.10;;;;;;4945210;28;20066;-54
2023/03/15 08:03:47;;;;;;;19.38;12.32;;;5.80;59.40;;;;;;4946637;28;20051;-44
2023/03/15 08:06:15;;;;;;;17.50;12.00;;;5.80;59.50;;;;;;4945301;28;20055;-49
2023/03/15 08:08:42;;;;;;;23.98;13.77;;;5.80;59.70;;;;;;4945951;28;20063;-46
2023/03/15 08:11:10;;;;;;;21.67;12.98;;;5.90;59.80;;;;;;4947609;28;20062;-44
2023/03/15 08:13:38;;;;;;;17.58;10.73;;;6.00;59.80;;;;;;4949958;28;20070;-45
2023/03/15 08:16:06;;;;;;;17.20;10.80;;;6.00;59.80;;;;;;4945518;28;20051;-47
2023/03/15 08:18:33;;;;;;;16.52;10.35;;;6.10;59.70;;;;;;4945619;28;20051;-45
2023/03/15 08:21:00;;;;;;;14.20;10.38;;;6.10;59.60;;;;;;4944413;28;20996;-46
2023/03/15 08:23:27;;;;;;;16.73;11.65;;;6.10;59.30;;;;;;4945498;28;20066;-45
2023/03/15 08:25:55;;;;;;;14.98;10.27;;;6.10;59.20;;;;;;4944040;28;20070;-45
2023/03/15 08:28:24;;;;;;;21.98;13.32;;;6.10;59.10;;;;;;4946634;28;20502;-48
2023/03/15 08:30:51;;;;;;;18.38;11.75;;;6.10;59.10;;;;;;4945632;28;20047;-47
2023/03/15 08:33:18;;;;;;;17.52;11.95;;;6.10;59.10;;;;;;4944571;28;20055;-46
2023/03/15 08:35:46;;;;;;;19.25;12.93;;;6.10;59.20;;;;;;4945390;28;20384;-48
2023/03/15 08:38:13;;;;;;;21.45;11.85;;;6.10;59.20;;;;;;4944944;28;21427;-46
2023/03/15 08:40:40;;;;;;;25.48;14.10;;;6.10;59.30;;;;;;4944319;28;20067;-46
2023/03/15 08:43:08;;;;;;;27.02;13.20;;;6.00;59.10;;;;;;4945014;28;20074;-46
2023/03/15 08:45:37;;;;;;;24.17;14.45;;;6.00;59.20;;;;;;4945736;28;20051;-46
2023/03/15 08:48:04;;;;;;;22.10;13.52;;;6.00;59.40;;;;;;4946451;28;20496;-48
2023/03/15 08:50:32;;;;;;;26.10;13.90;;;6.00;59.50;;;;;;4946711;28;20050;-46
2023/03/15 08:52:59;;;;;;;33.65;14.63;;;6.00;59.50;;;;;;4944620;28;20415;-44
2023/03/15 08:55:27;;;;;;;19.70;13.45;;;5.90;59.60;;;;;;4944873;28;20059;-47
2023/03/15 08:57:54;;;;;;;20.60;13.70;;;5.90;59.80;;;;;;4943270;28;20460;-47
2023/03/15 09:00:22;;;;;;;19.73;13.02;;;5.90;59.80;;;;;;4944951;28;20051;-50
2023/03/15 09:02:51;;;;;;;16.58;12.07;;;5.90;60.00;;;;;;4944239;28;20051;-47
2023/03/15 09:05:20;;;;;;;19.50;13.75;;;5.80;60.10;;;;;;4950508;28;20066;-50
2023/03/15 09:07:48;;;;;;;27.98;14.95;;;5.80;60.30;;;;;;4948711;28;20054;-47
2023/03/15 09:10:16;;;;;;;20.40;13.23;;;5.80;60.40;;;;;;4948188;28;20063;-45
2023/03/15 09:12:45;;;;;;;18.60;12.77;;;5.80;60.40;;;;;;4947344;28;20539;-47
2023/03/15 09:15:12;;;;;;;19.40;12.52;;;5.80;60.50;;;;;;4948826;28;20081;-46
2023/03/15 09:17:39;;;;;;;20.38;12.75;;;5.90;60.80;;;;;;4948735;28;20427;-49
2023/03/15 09:20:13;;;;;;;21.90;11.48;;;5.90;60.80;;;;;;4949263;28;20063;-45
2023/03/15 09:22:40;;;;;;;19.27;11.93;;;5.90;60.30;;;;;;4949720;28;20055;-45
2023/03/15 09:25:09;;;;;;;16.90;12.07;;;6.00;60.30;;;;;;4949128;28;20505;-50
2023/03/15 09:27:37;;;;;;;16.50;11.55;;;6.00;60.40;;;;;;4946993;28;20055;-46
2023/03/15 09:30:05;;;;;;;19.08;11.77;;;6.10;60.30;;;;;;4947349;28;20083;-45
2023/03/15 09:32:35;;;;;;;17.65;11.23;;;6.10;60.20;;;;;;4947548;28;20070;-49
2023/03/15 09:35:03;;;;;;;16.30;10.30;;;6.10;60.20;;;;;;4948360;28;20074;-46
2023/03/15 09:37:31;;;;;;;16.45;11.73;;;6.20;60.10;;;;;;4948901;28;20791;-47
2023/03/15 09:39:59;;;;;;;22.15;12.52;;;6.20;60.00;;;;;;4948310;28;20074;-46
2023/03/15 09:42:34;;;;;;;19.40;12.35;;;6.20;59.90;;;;;;4949013;28;20058;-48
2023/03/15 09:45:10;;;;;;;23.10;12.63;;;6.20;59.80;;;;;;4948533;28;20443;-46
2023/03/15 09:47:46;;;;;;;18.85;12.43;;;6.30;60.60;;;;;;4948612;28;20051;-46
2023/03/15 09:50:22;;;;;;;19.00;12.07;;;6.30;60.00;;;;;;4948850;28;20514;-48
2023/03/15 09:52:55;;;;;;;14.93;10.63;;;6.40;60.00;;;;;;4949977;28;20055;-46
2023/03/15 09:55:25;;;;;;;14.60;9.95;;;6.40;59.90;;;;;;4947694;28;20092;-49
2023/03/15 09:57:56;;;;;;;19.83;11.38;;;6.50;59.90;;;;;;4947042;28;20059;-46
2023/03/15 10:00:30;;;;;;;14.75;10.75;;;6.50;59.90;;;;;;4949655;28;20062;-47
2023/03/15 10:03:01;;;;;;;14.35;10.40;;;6.60;59.90;;;;;;4947167;28;20063;-50
2023/03/15 10:05:37;;;;;;;16.67;10.73;;;6.60;59.70;;;;;;4947166;28;20047;-51
2023/03/15 10:08:10;;;;;;;14.05;9.15;;;6.70;59.70;;;;;;4948250;28;20051;-48
2023/03/15 10:10:44;;;;;;;16.53;9.57;;;6.70;59.60;;;;;;4947961;28;20058;-47
2023/03/15 10:13:24;;;;;;;18.20;9.63;;;6.80;59.50;;;;;;4948360;28;20058;-51
2023/03/15 10:16:03;;;;;;;24.15;11.40;;;6.80;59.50;;;;;;4946849;28;20500;-48
2023/03/15 10:18:45;;;;;;;17.05;10.23;;;6.90;59.40;;;;;;4946787;28;20059;-46
2023/03/15 10:21:24;;;;;;;18.33;9.68;;;6.90;59.80;;;;;;4945903;28;20055;-46
2023/03/15 10:23:54;;;;;;;13.77;9.73;;;7.00;59.10;;;;;;4947738;28;20055;-45
2023/03/15 10:26:26;;;;;;;17.85;11.40;;;7.00;58.80;;;;;;4946873;28;20070;-46
2023/03/15 10:28:53;;;;;;;17.33;10.35;;;7.00;58.70;;;;;;4951228;28;20127;-45
2023/03/15 10:31:25;;;;;;;14.57;10.13;;;7.00;58.60;;;;;;4947803;28;20103;-52
2023/03/15 10:33:54;;;;;;;19.10;10.85;;;7.10;58.90;;;;;;4947815;28;20059;-45
2023/03/15 10:36:24;;;;;;;23.25;10.50;;;7.10;58.90;;;;;;4946421;28;20412;-48
2023/03/15 10:38:52;;;;;;;18.48;11.05;;;7.10;58.80;;;;;;4947267;28;20055;-49
2023/03/15 10:41:30;;;;;;;16.20;10.77;;;7.10;58.60;;;;;;4945553;28;20431;-46
2023/03/15 10:44:00;;;;;;;18.58;10.98;;;7.10;58.80;;;;;;4948129;28;20062;-47
2023/03/15 10:46:27;;;;;;;18.60;11.60;;;7.10;58.80;;;;;;4949743;28;20381;-45
2023/03/15 10:48:58;;;;;;;15.90;9.98;;;7.20;58.90;;;;;;4950663;28;20174;-50
2023/03/15 10:51:28;;;;;;;18.02;8.98;;;7.10;58.70;;;;;;4950741;28;20051;-45
2023/03/15 10:54:00;;;;;;;13.80;8.13;;;7.20;58.60;;;;;;4947680;28;20059;-47
2023/03/15 10:56:30;;;;;;;13.65;7.88;;;7.20;58.10;;;;;;4946348;28;20055;-47
2023/03/15 10:58:58;;;;;;;10.77;7.18;;;7.20;57.80;;;;;;4946568;28;20062;-44
2023/03/15 11:01:28;;;;;;;13.80;8.25;;;7.20;57.60;;;;;;4946928;28;20051;-51
2023/03/15 11:04:12;;;;;;;11.75;7.50;;;7.20;57.40;;;;;;4948286;28;20055;-49
2023/03/15 11:06:43;;;;;;;14.00;8.27;;;7.10;57.40;;;;;;4947288;28;20424;-44
2023/03/15 11:09:14;;;;;;;19.88;8.10;;;7.20;57.40;;;;;;4947398;28;20055;-50
2023/03/15 11:11:53;;;;;;;14.35;6.38;;;7.20;57.10;;;;;;4945212;28;20055;-45
2023/03/15 11:14:20;;;;;;;15.20;6.00;;;7.20;56.70;;;;;;4946619;28;20051;-46
2023/03/15 11:16:49;;;;;;;8.35;4.75;;;7.20;56.70;;;;;;4946695;28;20125;-46
2023/03/15 11:19:20;;;;;;;15.10;6.57;;;7.20;56.70;;;;;;4948165;28;20381;-46
2023/03/15 11:21:50;;;;;;;16.08;5.32;;;7.20;56.00;;;;;;4946706;28;20054;-44
2023/03/15 11:24:26;;;;;;;17.77;5.72;;;7.30;56.00;;;;;;4946525;28;20389;-48
2023/03/15 11:26:55;;;;;;;12.90;6.03;;;7.30;56.20;;;;;;4945087;28;20066;-44
2023/03/15 11:29:25;;;;;;;14.32;7.50;;;7.40;56.80;;;;;;4945764;28;20407;-46
2023/03/15 11:31:53;;;;;;;15.40;5.90;;;7.40;57.10;;;;;;4946582;28;20058;-45
2023/03/15 11:34:40;;;;;;;10.05;4.25;;;7.40;57.30;;;;;;4948262;28;20063;-45
2023/03/15 11:37:15;;;;;;;10.70;4.00;;;7.50;57.40;;;;;;4947316;28;20055;-45
2023/03/15 11:39:50;;;;;;;6.85;3.95;;;7.60;57.30;;;;;;4945927;28;20369;-45
2023/03/15 11:42:22;;;;;;;8.15;3.50;;;7.70;56.90;;;;;;4945554;28;20051;-45
2023/03/15 11:44:54;;;;;;;6.82;3.25;;;7.80;56.40;;;;;;4945372;28;20054;-45
2023/03/15 11:47:30;;;;;;;9.25;4.65;;;7.80;55.90;;;;;;4946652;28;20066;-47
2023/03/15 11:49:58;;;;;;;11.35;4.80;;;7.90;55.00;;;;;;4945530;28;20059;-47
2023/03/15 11:52:28;;;;;;;5.97;4.18;;;7.90;55.30;;;;;;4945691;28;20059;-47
2023/03/15 11:54:58;;;;;;;10.55;3.90;;;8.00;55.50;;;;;;4946615;28;20066;-46
2023/03/15 11:57:37;;;;;;;10.40;4.03;;;8.00;54.40;;;;;;4944632;28;20055;-47
2023/03/15 12:00:45;;;;;;;14.23;4.10;;;8.00;54.40;;;;;;4945848;28;20059;-45
2023/03/15 12:03:37;;;;;;;12.18;4.25;;;8.00;53.40;;;;;;4944849;28;20542;-45
2023/03/15 12:06:40;;;;;;;9.10;3.50;;;8.10;53.00;;;;;;4946743;28;20059;-45
2023/03/15 12:09:45;;;;;;;10.15;3.03;;;8.10;52.50;;;;;;4901319;28;20059;-47
2023/03/15 12:12:40;;;;;;;10.05;3.67;;;8.20;51.90;;;;;;4945377;28;20058;-47
2023/03/15 12:15:34;;;;;;;6.60;3.42;;;8.20;52.90;;;;;;4942397;28;20050;-49
2023/03/15 12:18:05;;;;;;;8.10;3.20;;;8.30;53.10;;;;;;4945075;28;20066;-45
2023/03/15 12:20:36;;;;;;;7.78;2.97;;;8.30;53.20;;;;;;4943044;28;20059;-44
2023/03/15 12:23:21;;;;;;;4.45;2.85;;;8.40;52.40;;;;;;4944614;28;20506;-51
2023/03/15 12:25:54;;;;;;;13.75;3.65;;;8.50;52.70;;;;;;4943716;28;20050;-52
2023/03/15 12:28:27;;;;;;;8.83;3.80;;;8.60;53.00;;;;;;4945951;28;20051;-49
2023/03/15 12:30:57;;;;;;;11.43;3.97;;;8.70;53.00;;;;;;4945834;28;20074;-52
2023/03/15 12:33:27;;;;;;;12.18;4.15;;;8.70;52.80;;;;;;4947137;28;20063;-49
2023/03/15 12:36:00;;;;;;;9.77;3.40;;;8.80;52.80;;;;;;4944801;28;20051;-53
2023/03/15 12:38:36;;;;;;;4.75;2.05;;;8.90;51.60;;;;;;4943826;28;20058;-45
2023/03/15 12:41:08;;;;;;;6.85;2.50;;;8.90;51.20;;;;;;4944314;28;20436;-48
2023/03/15 12:43:39;;;;;;;4.63;2.50;;;9.00;51.50;;;;;;4946544;28;20513;-46
2023/03/15 12:46:07;;;;;;;6.55;2.60;;;9.00;51.70;;;;;;4945616;28;20065;-46
2023/03/15 12:48:34;;;;;;;10.82;3.30;;;9.00;50.70;;;;;;4944963;28;20398;-50
2023/03/15 12:51:13;;;;;;;8.65;2.33;;;9.00;49.90;;;;;;4944118;28;20534;-47
2023/03/15 12:53:51;;;;;;;9.95;2.50;;;9.00;49.60;;;;;;4945446;28;20415;-45
2023/03/15 12:56:41;;;;;;;7.68;3.08;;;8.90;48.60;;;;;;4944112;28;20092;-47
2023/03/15 12:59:17;;;;;;;5.78;2.47;;;8.90;49.10;;;;;;4945761;28;20050;-48
2023/03/15 13:01:45;;;;;;;6.90;2.00;;;8.90;49.30;;;;;;4947477;28;20054;-46